Time;durP1;ratioP1;P1;durP2;ratioP2;P2;SDS_P1;SDS_P2;PMS_P1;PMS_P2;Temp;Humidity;BMP_temperature;BMP_pressure;BME280_temperature;BME280_humidity;BME280_pressure;Samples;Min_cycle;Max_cycle;Signal;HPM_P1;HPM_P2
2022/04/07 00:04:45;;;;;;;10.48;5.82;;;;;;;8.55;100.00;98810.22;10374869;28;20029;-75
2022/04/07 00:09:46;;;;;;;7.80;4.28;;;;;;;8.58;100.00;98784.97;10357076;28;20034;-74
2022/04/07 00:14:46;;;;;;;9.32;4.72;;;;;;;8.56;100.00;98759.75;10374038;28;20038;-75
2022/04/07 00:19:47;;;;;;;7.78;4.70;;;;;;;8.58;100.00;98763.03;10392989;28;20029;-74
2022/04/07 00:24:48;;;;;;;6.93;4.30;;;;;;;8.59;100.00;98752.88;10431713;28;20045;-75
2022/04/07 00:29:48;;;;;;;7.40;3.88;;;;;;;8.57;100.00;98755.09;10431309;28;20627;-75
2022/04/07 00:34:54;;;;;;;11.02;4.57;;;;;;;8.40;100.00;98750.06;10414534;28;20056;-74
2022/04/07 00:39:54;;;;;;;6.37;4.00;;;;;;;8.10;100.00;98719.13;10414670;28;20032;-75
2022/04/07 00:44:55;;;;;;;5.80;3.65;;;;;;;8.05;100.00;98717.25;10428915;28;20025;-75
2022/04/07 00:49:55;;;;;;;5.75;3.42;;;;;;;7.93;100.00;98696.84;10431427;28;20034;-74
2022/04/07 00:54:56;;;;;;;10.40;3.80;;;;;;;7.88;100.00;98689.50;10393320;28;20053;-75
2022/04/07 00:59:56;;;;;;;7.50;3.63;;;;;;;7.88;100.00;98684.84;10372231;28;20449;-74
2022/04/07 01:04:57;;;;;;;12.65;5.38;;;;;;;7.97;100.00;98663.09;10371456;28;20437;-74
2022/04/07 01:09:59;;;;;;;8.20;4.45;;;;;;;8.01;100.00;98655.09;10387325;28;20394;-73
2022/04/07 01:15:01;;;;;;;9.20;4.72;;;;;;;7.95;100.00;98637.09;10371341;28;20149;-74
2022/04/07 01:20:03;;;;;;;7.30;4.30;;;;;;;8.07;100.00;98648.47;10389469;28;20041;-76
2022/04/07 01:25:04;;;;;;;5.55;2.05;;;;;;;7.99;100.00;98635.41;10386329;28;20046;-77
2022/04/07 01:30:05;;;;;;;7.15;1.92;;;;;;;7.97;100.00;98627.47;10387555;28;20060;-74
2022/04/07 01:35:06;;;;;;;4.65;1.33;;;;;;;7.86;100.00;98613.06;10385967;28;20041;-74
2022/04/07 01:40:11;;;;;;;2.08;1.20;;;;;;;7.71;100.00;98574.91;10386978;28;20057;-74
2022/04/07 01:45:12;;;;;;;5.82;2.13;;;;;;;7.78;100.00;98591.81;10370157;28;20036;-74
2022/04/07 01:50:13;;;;;;;4.20;2.83;;;;;;;7.76;100.00;98571.28;10387958;28;20049;-75
2022/04/07 01:55:15;;;;;;;6.40;2.45;;;;;;;7.42;100.00;98523.78;10354125;28;20029;-74
2022/04/07 02:00:15;;;;;;;6.05;3.00;;;;;;;7.72;100.00;98560.09;10352787;28;20076;-74
2022/04/07 02:05:16;;;;;;;6.20;3.50;;;;;;;7.79;100.00;98557.00;10370061;28;20077;-74
2022/04/07 02:10:18;;;;;;;8.07;4.88;;;;;;;7.82;100.00;98551.75;10376125;28;20029;-75
2022/04/07 02:15:19;;;;;;;13.13;6.38;;;;;;;7.92;100.00;98544.50;10395222;28;20496;-75
2022/04/07 02:20:20;;;;;;;12.00;5.50;;;;;;;7.98;100.00;98529.63;10426636;28;20033;-76
2022/04/07 02:25:27;;;;;;;12.02;5.35;;;;;;;8.14;100.00;98533.00;10385490;28;20132;-74
2022/04/07 02:30:28;;;;;;;10.30;4.75;;;;;;;8.03;100.00;98489.28;10370028;28;20474;-75
2022/04/07 02:35:28;;;;;;;12.55;2.15;;;;;;;7.85;100.00;98512.84;10386918;28;20049;-75
2022/04/07 02:40:28;;;;;;;8.80;2.00;;;;;;;7.40;100.00;98489.56;10368937;28;20037;-74
2022/04/07 02:45:29;;;;;;;7.15;3.35;;;;;;;7.51;100.00;98485.59;10369617;28;20041;-76
2022/04/07 02:50:29;;;;;;;11.60;4.60;;;;;;;7.63;100.00;98472.31;10386127;28;20550;-76
2022/04/07 02:55:30;;;;;;;10.63;5.18;;;;;;;7.66;100.00;98462.69;10386877;28;20048;-76
2022/04/07 03:00:31;;;;;;;20.80;6.05;;;;;;;7.71;100.00;98450.84;10385592;28;20080;-75
2022/04/07 03:05:32;;;;;;;13.05;3.85;;;;;;;7.75;100.00;98449.97;10367929;28;20038;-77
2022/04/07 03:10:32;;;;;;;13.80;3.70;;;;;;;7.79;100.00;98429.09;10376222;28;20036;-74
2022/04/07 03:15:33;;;;;;;11.25;4.30;;;;;;;7.72;100.00;98398.50;10428059;28;20037;-74
2022/04/07 03:20:33;;;;;;;13.82;4.13;;;;;;;7.88;100.00;98402.66;10409775;28;20076;-74
2022/04/07 03:25:34;;;;;;;16.42;5.25;;;;;;;7.86;100.00;98373.94;10376477;28;20045;-75
2022/04/07 03:30:34;;;;;;;14.73;4.32;;;;;;;7.90;100.00;98369.50;10408820;28;20041;-76
2022/04/07 03:35:36;;;;;;;14.93;3.85;;;;;;;7.91;100.00;98353.88;10425693;28;20057;-75
2022/04/07 03:40:37;;;;;;;10.63;4.80;;;;;;;7.87;100.00;98365.44;10373182;28;20029;-75
2022/04/07 03:45:37;;;;;;;21.25;5.53;;;;;;;7.74;100.00;98329.75;10381585;28;20030;-75
2022/04/07 03:50:38;;;;;;;15.98;5.03;;;;;;;7.73;100.00;98345.38;10380677;28;20037;-75
2022/04/07 03:55:38;;;;;;;12.93;4.20;;;;;;;7.68;100.00;98337.22;10432568;28;20125;-74
2022/04/07 04:00:39;;;;;;;10.88;3.58;;;;;;;7.66;100.00;98323.03;10416016;28;20038;-73
2022/04/07 04:05:39;;;;;;;8.93;2.50;;;;;;;7.69;100.00;98314.22;10383249;28;20029;-72
2022/04/07 04:10:39;;;;;;;15.52;2.33;;;;;;;7.77;100.00;98305.34;10405730;28;20026;-73
2022/04/07 04:15:40;;;;;;;8.85;2.85;;;;;;;7.75;100.00;98285.66;10374840;28;20048;-73
2022/04/07 04:20:41;;;;;;;12.68;3.95;;;;;;;7.71;100.00;98270.09;10390909;28;20034;-73
2022/04/07 04:25:41;;;;;;;11.05;2.55;;;;;;;7.80;100.00;98274.59;10391412;28;20056;-73
2022/04/07 04:30:42;;;;;;;13.15;3.05;;;;;;;7.80;100.00;98260.91;10404368;28;20046;-75
2022/04/07 04:35:44;;;;;;;11.30;3.00;;;;;;;7.85;100.00;98249.88;10413977;28;20136;-74
2022/04/07 04:40:44;;;;;;;14.57;4.20;;;;;;;7.83;100.00;98219.22;10401438;28;20085;-74
2022/04/07 04:45:45;;;;;;;16.85;3.75;;;;;;;7.78;100.00;98202.88;10394367;28;20029;-75
2022/04/07 04:50:45;;;;;;;19.83;4.15;;;;;;;7.78;100.00;98202.06;10412267;28;20244;-76
2022/04/07 04:55:46;;;;;;;14.20;4.15;;;;;;;7.77;100.00;98173.88;10397410;28;20042;-75
2022/04/07 05:00:46;;;;;;;14.18;4.07;;;;;;;7.78;100.00;98153.56;10406208;28;20037;-74
2022/04/07 05:05:47;;;;;;;22.17;5.47;;;;;;;7.79;100.00;98155.19;10388273;28;20052;-74
2022/04/07 05:10:47;;;;;;;18.48;4.90;;;;;;;7.70;100.00;98145.25;10365534;28;20040;-74
2022/04/07 05:15:48;;;;;;;25.35;7.38;;;;;;;7.64;100.00;98147.25;10413889;28;20037;-75
2022/04/07 05:20:48;;;;;;;14.77;4.20;;;;;;;7.51;100.00;98134.38;10397176;28;20090;-74
2022/04/07 05:25:49;;;;;;;17.02;3.75;;;;;;;7.36;100.00;98116.25;10410155;28;20050;-75
2022/04/07 05:30:49;;;;;;;25.88;7.53;;;;;;;7.36;100.00;98124.47;10408656;28;20069;-74
2022/04/07 05:35:50;;;;;;;22.20;5.43;;;;;;;7.24;100.00;98079.25;10389843;28;20481;-75
2022/04/07 05:40:50;;;;;;;14.38;3.97;;;;;;;7.26;100.00;98087.19;10372096;28;20036;-74
2022/04/07 05:45:52;;;;;;;12.20;2.92;;;;;;;7.05;100.00;98081.25;10389345;28;20030;-74
2022/04/07 05:50:52;;;;;;;13.55;3.25;;;;;;;7.00;100.00;98081.31;10389433;28;20100;-76
2022/04/07 05:55:53;;;;;;;8.43;2.10;;;;;;;6.73;100.00;98063.69;10387022;28;20042;-74
2022/04/07 06:00:53;;;;;;;8.43;2.65;;;;;;;6.69;100.00;98042.72;10386002;28;20030;-75
2022/04/07 06:05:54;;;;;;;12.13;2.05;;;;;;;6.29;100.00;98121.50;10369741;28;20033;-72
2022/04/07 06:10:54;;;;;;;4.65;0.88;;;;;;;4.73;100.00;98096.03;10371211;28;20044;-74
2022/04/07 06:15:55;;;;;;;7.53;0.90;;;;;;;4.65;100.00;98116.53;10385835;28;20471;-72
2022/04/07 06:20:55;;;;;;;9.60;1.20;;;;;;;4.61;100.00;98115.47;10395749;28;20026;-74
2022/04/07 06:25:56;;;;;;;5.15;0.95;;;;;;;4.67;100.00;98118.16;10422150;28;20061;-73
2022/04/07 06:30:56;;;;;;;4.78;1.15;;;;;;;4.71;100.00;98130.13;10384897;28;20080;-73
2022/04/07 06:35:57;;;;;;;10.52;1.42;;;;;;;4.51;100.00;98126.44;10386451;28;20060;-74
2022/04/07 06:40:57;;;;;;;11.55;1.40;;;;;;;4.64;100.00;98128.53;10421441;28;20030;-74
2022/04/07 06:45:58;;;;;;;5.78;1.10;;;;;;;4.68;100.00;98117.06;10424628;28;20093;-74
2022/04/07 06:50:58;;;;;;;6.10;2.03;;;;;;;4.51;100.00;98079.31;10428037;28;20033;-74
2022/04/07 06:55:59;;;;;;;4.25;1.13;;;;;;;4.45;100.00;98043.13;10382902;28;20025;-74
2022/04/07 07:00:59;;;;;;;3.30;0.65;;;;;;;4.31;100.00;98021.16;10402138;28;20049;-73
2022/04/07 07:06:00;;;;;;;4.10;0.98;;;;;;;4.34;100.00;98039.66;10389314;28;20034;-73
2022/04/07 07:11:00;;;;;;;6.15;1.33;;;;;;;4.32;100.00;98051.91;10405792;28;20022;-73
2022/04/07 07:16:01;;;;;;;5.60;0.75;;;;;;;4.29;100.00;98041.59;10397725;28;20062;-74
2022/04/07 07:21:01;;;;;;;4.38;0.93;;;;;;;4.23;100.00;98000.78;10389155;28;20033;-74
2022/04/07 07:26:02;;;;;;;3.78;0.80;;;;;;;4.39;100.00;97998.75;10411548;28;20409;-74
2022/04/07 07:31:03;;;;;;;2.45;0.50;;;;;;;4.42;100.00;97941.00;10408766;28;20393;-73
2022/04/07 07:36:04;;;;;;;1.65;0.50;;;;;;;4.75;100.00;97954.03;10412555;28;20038;-73
2022/04/07 07:41:05;;;;;;;2.10;0.50;;;;;;;4.74;100.00;97934.13;10413691;28;20025;-73
2022/04/07 07:46:06;;;;;;;2.22;0.45;;;;;;;4.74;100.00;97923.25;10420708;28;20394;-74
2022/04/07 07:51:06;;;;;;;2.92;0.70;;;;;;;4.75;100.00;97913.16;10395879;28;20029;-74
2022/04/07 07:56:06;;;;;;;5.15;0.45;;;;;;;4.72;100.00;97870.13;10412564;28;20057;-73
2022/04/07 08:01:07;;;;;;;2.85;0.55;;;;;;;4.67;100.00;97900.16;10419191;28;20034;-72
2022/04/07 08:06:07;;;;;;;4.97;0.45;;;;;;;4.75;100.00;97907.69;10410879;28;20492;-73
2022/04/07 08:11:08;;;;;;;2.85;0.60;;;;;;;4.78;100.00;97907.94;10391233;28;20391;-72
2022/04/07 08:16:10;;;;;;;1.45;0.40;;;;;;;4.70;100.00;97888.69;10391427;28;20030;-73
2022/04/07 08:21:10;;;;;;;2.50;0.85;;;;;;;4.91;100.00;97903.69;10412867;28;20025;-72
2022/04/07 08:26:11;;;;;;;3.60;0.65;;;;;;;4.98;100.00;97909.63;10430061;28;20038;-73
2022/04/07 08:31:11;;;;;;;2.90;0.50;;;;;;;5.01;100.00;97911.75;10413314;28;20040;-72
2022/04/07 08:36:12;;;;;;;2.03;0.47;;;;;;;5.02;100.00;97902.50;10431625;28;20049;-73
2022/04/07 08:41:12;;;;;;;2.15;0.80;;;;;;;5.03;100.00;97908.75;10430863;28;20038;-73
2022/04/07 08:46:13;;;;;;;1.85;0.65;;;;;;;5.05;100.00;97901.91;10406757;28;20037;-72
2022/04/07 08:51:13;;;;;;;5.20;1.23;;;;;;;5.11;100.00;97888.22;10405011;28;20026;-71
2022/04/07 08:56:14;;;;;;;1.73;0.73;;;;;;;5.32;100.00;97886.84;10375218;28;20026;-72
2022/04/07 09:01:14;;;;;;;5.50;0.82;;;;;;;5.79;100.00;97876.91;10405813;28;20021;-73
2022/04/07 09:06:18;;;;;;;5.68;1.48;;;;;;;6.13;100.00;97875.84;10397404;28;20033;-73
2022/04/07 09:11:19;;;;;;;1.67;0.73;;;;;;;6.55;100.00;97889.59;10395794;28;20131;-72
2022/04/07 09:16:19;;;;;;;2.35;0.50;;;;;;;6.92;100.00;97877.69;10406788;28;20053;-72
2022/04/07 09:21:31;;;;;;;3.92;0.70;;;;;;;7.23;100.00;97863.38;10374667;28;20037;-73
2022/04/07 09:26:34;;;;;;;7.35;1.40;;;;;;;7.72;100.00;97864.50;10396999;28;20049;-73
2022/04/07 09:31:50;;;;;;;3.28;0.77;;;;;;;8.14;100.00;97837.72;10394672;28;20101;-75
2022/04/07 09:37:05;;;;;;;4.53;1.05;;;;;;;8.18;100.00;97848.88;10409188;28;20044;-72
2022/04/07 09:42:20;;;;;;;5.75;2.03;;;;;;;8.45;100.00;97846.03;10376917;28;20022;-74
2022/04/07 09:47:20;;;;;;;6.05;1.55;;;;;;;8.27;100.00;97823.16;10395894;28;20033;-72
2022/04/07 09:52:21;;;;;;;5.65;1.45;;;;;;;8.44;100.00;97813.44;10387938;28;20033;-73
2022/04/07 09:57:22;;;;;;;4.07;1.70;;;;;;;8.59;100.00;97817.69;10370540;28;20033;-75
2022/04/07 10:02:22;;;;;;;3.88;1.27;;;;;;;8.79;100.00;97819.06;10372291;28;20406;-74
2022/04/07 10:07:24;;;;;;;2.95;1.02;;;;;;;8.66;100.00;97810.63;10355572;28;20026;-75
2022/04/07 10:12:25;;;;;;;5.30;2.00;;;;;;;9.66;100.00;97797.25;10374970;28;20028;-76
2022/04/07 10:17:26;;;;;;;6.03;1.65;;;;;;;9.85;100.00;97770.22;10406544;28;20121;-73
2022/04/07 10:22:29;;;;;;;9.88;1.58;;;;;;;9.68;100.00;97778.50;10393278;28;20033;-75
2022/04/07 10:27:31;;;;;;;4.97;1.35;;;;;;;9.41;100.00;97769.47;10427720;28;20450;-72
2022/04/07 10:32:47;;;;;;;10.77;1.52;;;;;;;9.87;100.00;97776.22;10390036;28;20033;-76
2022/04/07 10:37:48;;;;;;;14.57;2.50;;;;;;;9.56;100.00;97764.63;10385888;28;20030;-76
2022/04/07 10:43:03;;;;;;;4.15;1.13;;;;;;;9.99;100.00;97766.50;10353627;28;20033;-75
2022/04/07 10:48:24;;;;;;;8.30;1.38;;;;;;;9.47;100.00;97790.13;10387447;28;20026;-76
2022/04/07 10:53:28;;;;;;;8.45;1.42;;;;;;;8.21;100.00;97796.19;10386600;28;20058;-75
2022/04/07 10:58:48;;;;;;;9.73;1.52;;;;;;;7.87;100.00;97817.59;10389320;28;20033;-77
2022/04/07 11:04:22;;;;;;;9.65;1.73;;;;;;;7.99;100.00;97786.06;10391772;28;20538;-75
2022/04/07 11:09:23;;;;;;;10.70;1.58;;;;;;;9.16;100.00;97789.47;10403353;28;20128;-76
2022/04/07 11:14:27;;;;;;;6.53;1.35;;;;;;;9.68;100.00;97792.25;10405485;28;20472;-75
2022/04/07 11:20:18;;;;;;;4.25;0.80;;;;;;;8.73;100.00;97820.34;10382097;28;20045;-75
2022/04/07 11:25:29;;;;;;;6.78;1.30;;;;;;;8.33;100.00;97804.66;10413983;28;20080;-74
2022/04/07 11:31:00;;;;;;;7.00;2.38;;;;;;;7.28;100.00;97844.13;10382734;28;20612;-75
2022/04/07 11:36:02;;;;;;;6.72;1.40;;;;;;;6.73;100.00;97827.75;10411225;28;20053;-72
2022/04/07 11:41:04;;;;;;;13.63;2.45;;;;;;;6.62;100.00;97822.50;10401497;28;20032;-74
2022/04/07 11:46:05;;;;;;;9.13;1.60;;;;;;;7.22;100.00;97794.19;10360412;28;20121;-74
2022/04/07 11:51:17;;;;;;;17.50;3.83;;;;;;;8.06;100.00;97786.41;10359842;28;20022;-72
2022/04/07 11:56:20;;;;;;;12.02;2.95;;;;;;;8.73;100.00;97779.19;10375910;28;20033;-73
2022/04/07 12:01:21;;;;;;;12.25;2.38;;;;;;;9.27;100.00;97774.28;10357725;28;20045;-75
2022/04/07 12:06:22;;;;;;;15.32;3.13;;;;;;;10.34;100.00;97786.50;10405814;28;20025;-70
2022/04/07 12:11:24;;;;;;;11.25;3.50;;;;;;;10.60;100.00;97769.88;10416248;28;20049;-72
2022/04/07 12:16:25;;;;;;;9.38;2.08;;;;;;;10.02;100.00;97787.81;10415811;28;20063;-73
2022/04/07 12:21:27;;;;;;;12.30;2.05;;;;;;;9.90;100.00;97775.56;10430786;28;20101;-72
2022/04/07 12:26:37;;;;;;;11.10;2.00;;;;;;;10.20;100.00;97764.66;10384556;28;20065;-76
2022/04/07 12:31:38;;;;;;;15.60;2.97;;;;;;;10.41;100.00;97750.22;10409685;28;20036;-74
2022/04/07 12:36:39;;;;;;;11.77;1.92;;;;;;;10.93;100.00;97721.63;10379858;28;20018;-74
2022/04/07 12:41:44;;;;;;;9.77;1.83;;;;;;;10.00;100.00;97724.13;10409512;28;20263;-74
2022/04/07 12:46:51;;;;;;;11.90;2.22;;;;;;;9.49;100.00;97721.97;10411093;28;20034;-74
2022/04/07 12:52:00;;;;;;;7.93;2.00;;;;;;;9.33;100.00;97722.78;10417336;28;20462;-72
2022/04/07 12:57:12;;;;;;;8.98;2.92;;;;;;;8.69;100.00;97777.06;10449706;28;20021;-75
2022/04/07 13:02:12;;;;;;;13.38;2.42;;;;;;;8.36;100.00;97751.13;10413082;28;20118;-74
2022/04/07 13:07:13;;;;;;;7.00;1.77;;;;;;;8.26;100.00;97810.56;10436341;28;20021;-75
2022/04/07 13:12:13;;;;;;;7.95;1.23;;;;;;;7.26;100.00;97849.91;10431191;28;20087;-74
2022/04/07 13:17:14;;;;;;;4.18;1.05;;;;;;;5.86;100.00;97827.38;10449736;28;20044;-76
2022/04/07 13:22:15;;;;;;;6.20;1.83;;;;;;;6.22;100.00;97857.66;10430433;28;20041;-76
2022/04/07 13:27:15;;;;;;;3.00;0.60;;;;;;;7.78;100.00;97841.34;10454611;28;20112;-74
2022/04/07 13:32:16;;;;;;;4.05;1.60;;;;;;;6.23;100.00;97646.19;10414248;28;20045;-76
2022/04/07 13:37:16;;;;;;;2.33;0.93;;;;;;;7.06;100.00;97842.13;10397690;28;20029;-74
2022/04/07 13:42:17;;;;;;;5.45;0.88;;;;;;;7.72;100.00;97828.91;10379614;28;20064;-74
2022/04/07 13:47:18;;;;;;;6.05;1.50;;;;;;;9.01;100.00;97824.47;10429167;28;20032;-75
2022/04/07 13:52:18;;;;;;;7.18;2.35;;;;;;;10.07;100.00;97815.16;10379557;28;20029;-77
2022/04/07 13:57:19;;;;;;;6.70;1.45;;;;;;;9.36;100.00;97879.41;10395973;28;20037;-77
2022/04/07 14:02:20;;;;;;;8.30;1.52;;;;;;;6.99;100.00;97913.66;10433564;28;20033;-75
2022/04/07 14:07:21;;;;;;;5.85;1.48;;;;;;;6.20;100.00;97914.53;10397397;28;20030;-75
2022/04/07 14:12:22;;;;;;;5.30;0.75;;;;;;;5.83;100.00;97954.38;10399379;28;20036;-71
2022/04/07 14:17:22;;;;;;;3.13;0.40;;;;;;;5.46;100.00;97923.22;10447198;28;20029;-75
2022/04/07 14:22:23;;;;;;;2.47;0.70;;;;;;;5.57;100.00;97923.88;10446657;28;20034;-76
2022/04/07 14:27:23;;;;;;;4.45;0.70;;;;;;;5.53;100.00;97950.13;10420933;28;20033;-73
2022/04/07 14:32:23;;;;;;;2.40;0.73;;;;;;;5.22;100.00;97916.97;10442505;28;20029;-73
2022/04/07 14:37:24;;;;;;;4.70;1.08;;;;;;;5.36;100.00;97917.88;10405536;28;20032;-73
2022/04/07 14:42:24;;;;;;;5.97;1.30;;;;;;;6.20;100.00;97913.69;10446517;28;20033;-72
2022/04/07 14:47:25;;;;;;;3.70;1.40;;;;;;;7.30;100.00;97904.84;10394633;28;20045;-74
2022/04/07 14:52:26;;;;;;;4.60;1.67;;;;;;;8.17;100.00;97905.63;10411575;28;20046;-75
2022/04/07 14:57:26;;;;;;;2.95;0.77;;;;;;;8.72;100.00;97922.94;10371163;28;20044;-73
2022/04/07 15:02:27;;;;;;;7.35;2.33;;;;;;;8.99;100.00;97917.28;10426088;28;20025;-73
2022/04/07 15:07:27;;;;;;;3.70;1.30;;;;;;;8.52;100.00;97910.56;10408761;28;20040;-73
2022/04/07 15:12:28;;;;;;;6.05;1.20;;;;;;;8.86;100.00;97908.00;10389271;28;20026;-72
2022/04/07 15:17:30;;;;;;;6.32;1.42;;;;;;;9.36;100.00;97904.13;10375751;28;20036;-76
2022/04/07 15:22:30;;;;;;;10.02;2.35;;;;;;;8.48;100.00;97924.09;10424656;28;20044;-74
2022/04/07 15:27:31;;;;;;;6.60;2.03;;;;;;;7.35;100.00;97880.09;10376335;28;20049;-76
2022/04/07 15:32:31;;;;;;;8.10;1.83;;;;;;;7.89;100.00;97946.00;10425588;28;20317;-73
2022/04/07 15:37:32;;;;;;;7.47;2.17;;;;;;;9.28;100.00;97973.53;10424632;28;20070;-76
2022/04/07 15:42:32;;;;;;;7.32;1.00;;;;;;;9.85;100.00;97956.28;10389572;28;20025;-74
2022/04/07 15:47:33;;;;;;;8.50;1.02;;;;;;;10.11;100.00;97972.81;10395181;28;20044;-77
2022/04/07 15:52:34;;;;;;;8.95;1.25;;;;;;;10.02;100.00;97964.53;10397384;28;20543;-79
2022/04/07 15:57:38;;;;;;;6.55;1.15;;;;;;;9.31;100.00;97992.16;10383217;28;20021;-74
2022/04/07 16:02:38;;;;;;;6.25;1.42;;;;;;;8.95;100.00;98003.25;10384161;28;20038;-76
2022/04/07 16:07:39;;;;;;;7.38;2.22;;;;;;;8.34;100.00;98000.06;10380736;28;20480;-77
2022/04/07 16:12:40;;;;;;;9.75;1.10;;;;;;;8.34;100.00;98008.28;10430140;28;20441;-76
2022/04/07 16:17:41;;;;;;;9.88;1.80;;;;;;;8.43;100.00;98036.59;10398882;28;20527;-75
2022/04/07 16:22:41;;;;;;;9.35;1.02;;;;;;;9.32;100.00;97985.50;10391767;28;20028;-74
2022/04/07 16:27:42;;;;;;;5.20;1.25;;;;;;;8.89;100.00;98038.25;10392845;28;20104;-75
2022/04/07 16:32:43;;;;;;;6.03;1.48;;;;;;;8.48;100.00;98029.06;10399591;28;20037;-74
2022/04/07 16:37:43;;;;;;;8.73;1.20;;;;;;;8.21;100.00;98051.06;10414804;28;20053;-74
2022/04/07 16:42:44;;;;;;;9.80;1.40;;;;;;;8.25;100.00;98041.91;10381521;28;20113;-76
2022/04/07 16:47:45;;;;;;;10.27;1.83;;;;;;;7.97;100.00;98051.31;10398328;28;20030;-72
2022/04/07 16:52:45;;;;;;;8.70;1.60;;;;;;;7.94;100.00;98068.34;10411877;28;20551;-76
2022/04/07 16:57:45;;;;;;;11.45;1.67;;;;;;;7.78;100.00;98044.00;10392632;28;20037;-74
2022/04/07 17:02:46;;;;;;;4.07;1.50;;;;;;;7.88;100.00;98065.72;10379367;28;20033;-73
2022/04/07 17:07:46;;;;;;;8.43;2.58;;;;;;;7.86;100.00;98069.88;10412284;28;20025;-75
2022/04/07 17:12:47;;;;;;;6.53;1.58;;;;;;;7.86;100.00;98081.66;10395901;28;20044;-74
2022/04/07 17:17:48;;;;;;;8.07;1.23;;;;;;;7.81;100.00;98057.13;10362053;28;20026;-74
2022/04/07 17:22:50;;;;;;;4.78;1.23;;;;;;;7.71;100.00;98060.06;10425592;28;20053;-74
2022/04/07 17:27:50;;;;;;;5.93;1.40;;;;;;;7.72;100.00;98088.25;10404340;28;20116;-74
2022/04/07 17:32:51;;;;;;;3.50;0.90;;;;;;;7.66;100.00;98087.53;10378616;28;20030;-79
2022/04/07 17:37:51;;;;;;;2.60;0.88;;;;;;;7.63;100.00;98082.66;10428143;28;20034;-75
2022/04/07 17:42:56;;;;;;;4.72;1.40;;;;;;;7.36;100.00;98058.78;10428956;28;20032;-74
2022/04/07 17:47:56;;;;;;;6.78;1.25;;;;;;;7.39;100.00;98085.56;10412323;28;20022;-74
2022/04/07 17:52:57;;;;;;;7.10;1.42;;;;;;;7.29;100.00;98094.78;10428395;28;20033;-74
2022/04/07 17:57:57;;;;;;;2.70;0.82;;;;;;;6.90;100.00;98093.22;10399968;28;20037;-74
2022/04/07 18:02:58;;;;;;;5.15;0.93;;;;;;;6.81;100.00;98086.81;10398056;28;20038;-73
2022/04/07 18:07:58;;;;;;;7.40;1.30;;;;;;;6.72;100.00;98105.00;10391242;28;20033;-74
2022/04/07 18:12:59;;;;;;;4.75;0.90;;;;;;;6.28;100.00;98098.00;10409760;28;20040;-74
2022/04/07 18:17:59;;;;;;;4.53;1.00;;;;;;;6.18;100.00;98102.50;10393657;28;20043;-76
2022/04/07 18:23:01;;;;;;;8.05;1.85;;;;;;;6.15;100.00;98111.25;10394877;28;20044;-74
2022/04/07 18:28:02;;;;;;;11.93;1.80;;;;;;;6.22;100.00;98119.09;10395157;28;20049;-75
2022/04/07 18:33:02;;;;;;;6.90;1.88;;;;;;;6.24;100.00;98090.41;10377493;28;20273;-77
2022/04/07 18:38:03;;;;;;;10.50;1.70;;;;;;;6.36;100.00;98111.00;10385103;28;20028;-74
2022/04/07 18:43:03;;;;;;;4.93;1.30;;;;;;;6.41;100.00;98106.28;10367618;28;20034;-73
2022/04/07 18:48:04;;;;;;;10.10;1.42;;;;;;;6.60;100.00;98116.41;10350546;28;20033;-75
2022/04/07 18:53:05;;;;;;;8.02;1.90;;;;;;;6.71;100.00;98117.06;10368751;28;20053;-76
2022/04/07 18:58:05;;;;;;;10.93;2.15;;;;;;;6.80;100.00;98129.78;10386542;28;20038;-76
2022/04/07 19:03:06;;;;;;;12.07;1.63;;;;;;;6.82;100.00;98140.41;10384946;28;20041;-75
2022/04/07 19:08:07;;;;;;;9.70;1.88;;;;;;;6.83;100.00;98161.19;10369109;28;20049;-77
2022/04/07 19:13:07;;;;;;;12.00;2.88;;;;;;;6.61;100.00;98159.81;10384628;28;20029;-73
2022/04/07 19:18:08;;;;;;;10.18;1.95;;;;;;;6.47;100.00;98198.03;10363336;28;20037;-75
2022/04/07 19:23:09;;;;;;;11.25;1.90;;;;;;;6.38;100.00;98201.69;10432692;28;20021;-72
2022/04/07 19:28:09;;;;;;;16.15;1.90;;;;;;;6.34;100.00;98208.84;10433904;28;20545;-73
2022/04/07 19:33:09;;;;;;;11.70;2.15;;;;;;;6.36;100.00;98226.56;10413941;28;20060;-73
2022/04/07 19:38:10;;;;;;;9.90;1.73;;;;;;;6.43;100.00;98259.03;10432629;28;20033;-77
2022/04/07 19:43:11;;;;;;;12.63;1.38;;;;;;;6.47;100.00;98295.63;10393403;28;20029;-73
2022/04/07 19:48:11;;;;;;;12.48;1.83;;;;;;;6.46;100.00;98293.97;10382910;28;20060;-75
2022/04/07 19:53:12;;;;;;;12.50;1.70;;;;;;;6.46;100.00;98315.84;10398305;28;20038;-75
2022/04/07 19:58:13;;;;;;;12.40;2.22;;;;;;;6.45;100.00;98319.69;10398302;28;20044;-76
2022/04/07 20:03:13;;;;;;;13.90;1.90;;;;;;;6.24;100.00;98332.72;10432535;28;20037;-77
2022/04/07 20:08:14;;;;;;;14.85;2.90;;;;;;;6.49;100.00;98369.94;10413992;28;20029;-79
2022/04/07 20:13:14;;;;;;;11.85;1.75;;;;;;;6.38;100.00;98393.00;10393495;28;20038;-75
2022/04/07 20:18:15;;;;;;;7.80;2.50;;;;;;;6.45;100.00;98418.88;10424315;28;20450;-76
2022/04/07 20:23:16;;;;;;;6.68;1.85;;;;;;;6.37;100.00;98418.72;10430839;28;20022;-75
2022/04/07 20:28:19;;;;;;;12.07;1.85;;;;;;;6.36;100.00;98447.94;10397938;28;20109;-75
2022/04/07 20:33:20;;;;;;;8.15;2.40;;;;;;;6.34;100.00;98468.44;10432297;28;20045;-74
2022/04/07 20:38:20;;;;;;;14.25;3.08;;;;;;;6.17;100.00;98475.13;10397456;28;20040;-74
2022/04/07 20:43:21;;;;;;;18.10;1.88;;;;;;;6.24;100.00;98508.44;10397975;28;20026;-74
2022/04/07 20:48:21;;;;;;;15.57;2.63;;;;;;;6.20;100.00;98515.56;10431024;28;20034;-74
2022/04/07 20:53:22;;;;;;;11.35;4.05;;;;;;;6.04;100.00;98514.81;10398549;28;20044;-74
2022/04/07 20:58:22;;;;;;;15.32;3.30;;;;;;;6.00;100.00;98530.16;10431604;28;20478;-75
2022/04/07 21:03:23;;;;;;;10.63;1.80;;;;;;;6.04;100.00;98555.81;10414537;28;20452;-74
2022/04/07 21:08:23;;;;;;;8.00;1.33;;;;;;;6.11;100.00;98560.94;10381173;28;20040;-76
2022/04/07 21:13:28;;;;;;;8.65;1.25;;;;;;;6.11;100.00;98566.41;10397228;28;20025;-74
2022/04/07 21:18:29;;;;;;;15.57;2.03;;;;;;;6.01;100.00;98582.84;10413922;28;20116;-74
2022/04/07 21:23:29;;;;;;;17.55;2.13;;;;;;;5.86;100.00;98592.72;10408559;28;20226;-74
2022/04/07 21:28:30;;;;;;;11.45;1.70;;;;;;;5.78;100.00;98601.47;10394192;28;20072;-74
2022/04/07 21:33:30;;;;;;;7.95;2.47;;;;;;;5.91;100.00;98623.81;10355560;28;20045;-75
2022/04/07 21:38:31;;;;;;;8.60;1.33;;;;;;;5.90;100.00;98630.41;10355733;28;20056;-78
2022/04/07 21:43:31;;;;;;;14.98;1.75;;;;;;;6.06;100.00;98656.59;10388314;28;20386;-74
2022/04/07 21:48:31;;;;;;;11.85;1.70;;;;;;;6.06;100.00;98673.00;10389752;28;20018;-74
2022/04/07 21:53:32;;;;;;;5.63;1.58;;;;;;;6.08;100.00;98695.38;10372389;28;20434;-74
2022/04/07 21:58:33;;;;;;;7.38;1.52;;;;;;;5.99;100.00;98718.88;10389370;28;20049;-74
2022/04/07 22:03:33;;;;;;;8.40;1.10;;;;;;;5.85;100.00;98724.91;10354720;28;20036;-73
2022/04/07 22:08:34;;;;;;;4.95;1.33;;;;;;;5.82;100.00;98733.63;10386775;28;20034;-73
2022/04/07 22:13:34;;;;;;;8.13;1.38;;;;;;;5.84;100.00;98758.75;10386880;28;20033;-74
2022/04/07 22:18:35;;;;;;;8.82;1.25;;;;;;;5.47;100.00;98770.78;10386779;28;20026;-74
2022/04/07 22:23:35;;;;;;;11.77;2.42;;;;;;;5.46;100.00;98812.81;10388494;28;20056;-76
2022/04/07 22:28:36;;;;;;;8.75;1.98;;;;;;;5.34;100.00;98827.81;10387153;28;20060;-74
2022/04/07 22:33:36;;;;;;;13.82;2.00;;;;;;;5.29;100.00;98841.44;10385296;28;20046;-76
2022/04/07 22:38:37;;;;;;;13.38;1.48;;;;;;;5.20;100.00;98841.94;10352892;28;20522;-75
2022/04/07 22:43:37;;;;;;;13.43;2.22;;;;;;;5.21;100.00;98878.25;10422121;28;20087;-74
2022/04/07 22:48:37;;;;;;;13.30;1.60;;;;;;;5.07;100.00;98879.84;10394373;28;20036;-74
2022/04/07 22:53:38;;;;;;;7.90;1.42;;;;;;;5.00;100.00;98902.72;10426797;28;20051;-75
2022/04/07 22:58:38;;;;;;;7.28;0.85;;;;;;;5.03;100.00;98923.19;10393946;28;20064;-76
2022/04/07 23:03:39;;;;;;;4.93;1.10;;;;;;;4.84;100.00;98915.47;10372536;28;20034;-77
2022/04/07 23:08:39;;;;;;;15.75;2.83;;;;;;;4.88;100.00;98937.56;10386776;28;20030;-77
2022/04/07 23:13:40;;;;;;;11.23;1.38;;;;;;;4.95;100.00;98967.31;10398122;28;20044;-77
2022/04/07 23:18:40;;;;;;;10.35;2.38;;;;;;;4.88;100.00;98959.38;10393643;28;20026;-77